KCEC/CEC METAR and TAF weather

Enter ICAO airport designator
Station Type Date Time Source
KCEC METAR 2020/06/06 14:56 UTC NOAA

KCEC 061456Z AUTO 17007KT 9SM FEW005 BKN049 OVC060 12/10 A2995 RMK AO2 SLP143 T01220100 51009


Station Type Date Time Source
KCEC Decoded METAR 2020/06/06 14:56 UTC NOAA

CRESCENT CITY MC NAMARA, CA, United States (KCEC) 41-47N 124-14W
Jun 06, 2020 - 10:56 AM EDT / 2020.06.06 1456 UTC
Wind: from the S (170 degrees) at 8 MPH (7 KT):0
Visibility: 9 mile(s):0
Sky conditions: overcast
Temperature: 54.0 F (12.2 C)
Dew Point: 50.0 F (10.0 C)
Relative Humidity: 86%
Pressure (altimeter): 29.95 in. Hg (1014 hPa)
Pressure tendency: 0.03 inches (0.9 hPa) higher than three hours ago
ob: KCEC 061456Z AUTO 17007KT 9SM FEW005 BKN049 OVC060 12/10 A2995 RMK AO2 SLP143 T01220100 51009
cycle: 15

Station Type Date Time Source
KCEC TAF 2020/06/06 14:42 UTC NOAA

TAF
AMD KCEC 061340Z 0614/0712 17005KT P6SM BKN006 BKN045 OVC070
FM061800 18009KT P6SM -SHRA BKN015 OVC050
FM062100 28009KT 5SM -SHRA VCTS OVC025CB
FM070600 17010KT P6SM -SHRA OVC050

Example: see airport list